sensor_id;sensor_type;location;lat;lon;timestamp;P1;durP1;ratioP1;P2;durP2;ratioP2
17892;SDS011;9072;51.918;4.380;2023-09-18T00:01:22;23.63;;;21.23;;
17892;SDS011;9072;51.918;4.380;2023-09-18T00:03:49;23.87;;;21.33;;
17892;SDS011;9072;51.918;4.380;2023-09-18T00:06:19;23.90;;;21.50;;
17892;SDS011;9072;51.918;4.380;2023-09-18T00:08:50;25.27;;;22.60;;
17892;SDS011;9072;51.918;4.380;2023-09-18T00:11:19;23.10;;;20.83;;
17892;SDS011;9072;51.918;4.380;2023-09-18T00:13:46;22.50;;;20.33;;
17892;SDS011;9072;51.918;4.380;2023-09-18T00:16:13;23.13;;;20.83;;
17892;SDS011;9072;51.918;4.380;2023-09-18T00:18:40;23.30;;;20.80;;
17892;SDS011;9072;51.918;4.380;2023-09-18T00:21:07;23.13;;;20.87;;
17892;SDS011;9072;51.918;4.380;2023-09-18T00:23:35;25.30;;;22.77;;
17892;SDS011;9072;51.918;4.380;2023-09-18T00:26:04;24.27;;;21.90;;
17892;SDS011;9072;51.918;4.380;2023-09-18T00:28:31;23.70;;;21.37;;
17892;SDS011;9072;51.918;4.380;2023-09-18T00:30:58;23.60;;;21.40;;
17892;SDS011;9072;51.918;4.380;2023-09-18T00:33:25;23.40;;;21.00;;
17892;SDS011;9072;51.918;4.380;2023-09-18T00:35:53;22.07;;;20.00;;
17892;SDS011;9072;51.918;4.380;2023-09-18T00:38:20;24.27;;;22.03;;
17892;SDS011;9072;51.918;4.380;2023-09-18T00:40:46;23.63;;;21.13;;
17892;SDS011;9072;51.918;4.380;2023-09-18T00:43:15;24.03;;;21.27;;
17892;SDS011;9072;51.918;4.380;2023-09-18T00:45:44;22.67;;;20.57;;
17892;SDS011;9072;51.918;4.380;2023-09-18T00:48:13;23.17;;;20.77;;
17892;SDS011;9072;51.918;4.380;2023-09-18T00:50:41;23.20;;;21.00;;
17892;SDS011;9072;51.918;4.380;2023-09-18T00:53:11;21.63;;;19.60;;
17892;SDS011;9072;51.918;4.380;2023-09-18T00:55:41;21.90;;;19.77;;
17892;SDS011;9072;51.918;4.380;2023-09-18T00:58:08;23.20;;;21.00;;
17892;SDS011;9072;51.918;4.380;2023-09-18T01:00:37;23.90;;;21.57;;
17892;SDS011;9072;51.918;4.380;2023-09-18T01:03:06;22.70;;;20.50;;
17892;SDS011;9072;51.918;4.380;2023-09-18T01:05:33;23.70;;;21.20;;
17892;SDS011;9072;51.918;4.380;2023-09-18T01:08:01;23.77;;;21.57;;
17892;SDS011;9072;51.918;4.380;2023-09-18T01:10:31;24.07;;;21.90;;
17892;SDS011;9072;51.918;4.380;2023-09-18T01:13:02;23.60;;;21.27;;
17892;SDS011;9072;51.918;4.380;2023-09-18T01:15:40;22.57;;;20.23;;
17892;SDS011;9072;51.918;4.380;2023-09-18T01:18:14;24.03;;;21.80;;
17892;SDS011;9072;51.918;4.380;2023-09-18T01:20:43;24.10;;;21.60;;
17892;SDS011;9072;51.918;4.380;2023-09-18T01:23:11;23.50;;;21.43;;
17892;SDS011;9072;51.918;4.380;2023-09-18T01:25:39;24.93;;;21.00;;
17892;SDS011;9072;51.918;4.380;2023-09-18T01:28:06;24.03;;;21.53;;
17892;SDS011;9072;51.918;4.380;2023-09-18T01:30:33;23.57;;;21.17;;
17892;SDS011;9072;51.918;4.380;2023-09-18T01:33:00;22.80;;;20.60;;
17892;SDS011;9072;51.918;4.380;2023-09-18T01:35:29;22.40;;;20.40;;
17892;SDS011;9072;51.918;4.380;2023-09-18T01:37:57;22.17;;;19.87;;
17892;SDS011;9072;51.918;4.380;2023-09-18T01:40:27;22.87;;;20.77;;
17892;SDS011;9072;51.918;4.380;2023-09-18T01:42:55;23.37;;;20.97;;
17892;SDS011;9072;51.918;4.380;2023-09-18T01:45:22;24.80;;;21.90;;
17892;SDS011;9072;51.918;4.380;2023-09-18T01:47:49;23.00;;;20.90;;
17892;SDS011;9072;51.918;4.380;2023-09-18T01:50:16;22.40;;;20.07;;
17892;SDS011;9072;51.918;4.380;2023-09-18T01:52:44;21.13;;;19.03;;
17892;SDS011;9072;51.918;4.380;2023-09-18T01:55:13;21.60;;;19.43;;
17892;SDS011;9072;51.918;4.380;2023-09-18T01:57:42;22.83;;;20.43;;
17892;SDS011;9072;51.918;4.380;2023-09-18T02:00:09;20.50;;;18.53;;
17892;SDS011;9072;51.918;4.380;2023-09-18T02:02:38;20.80;;;18.70;;
17892;SDS011;9072;51.918;4.380;2023-09-18T02:05:09;22.47;;;20.17;;
17892;SDS011;9072;51.918;4.380;2023-09-18T02:07:36;21.00;;;18.87;;
17892;SDS011;9072;51.918;4.380;2023-09-18T02:10:04;22.17;;;19.97;;
17892;SDS011;9072;51.918;4.380;2023-09-18T02:12:32;21.67;;;19.53;;
17892;SDS011;9072;51.918;4.380;2023-09-18T02:15:00;22.60;;;19.73;;
17892;SDS011;9072;51.918;4.380;2023-09-18T02:17:31;21.33;;;19.10;;
17892;SDS011;9072;51.918;4.380;2023-09-18T02:19:58;21.23;;;18.97;;
17892;SDS011;9072;51.918;4.380;2023-09-18T02:22:30;22.03;;;18.67;;
17892;SDS011;9072;51.918;4.380;2023-09-18T02:24:58;20.63;;;18.43;;
17892;SDS011;9072;51.918;4.380;2023-09-18T02:27:26;18.97;;;17.17;;
17892;SDS011;9072;51.918;4.380;2023-09-18T02:29:56;19.37;;;17.57;;
17892;SDS011;9072;51.918;4.380;2023-09-18T02:32:25;20.93;;;18.63;;
17892;SDS011;9072;51.918;4.380;2023-09-18T02:34:52;21.10;;;18.80;;
17892;SDS011;9072;51.918;4.380;2023-09-18T02:37:20;20.37;;;18.27;;
17892;SDS011;9072;51.918;4.380;2023-09-18T02:39:47;20.07;;;17.97;;
17892;SDS011;9072;51.918;4.380;2023-09-18T02:42:15;21.10;;;19.00;;
17892;SDS011;9072;51.918;4.380;2023-09-18T02:44:42;20.47;;;18.47;;
17892;SDS011;9072;51.918;4.380;2023-09-18T02:47:09;20.03;;;18.07;;
17892;SDS011;9072;51.918;4.380;2023-09-18T02:49:40;21.00;;;19.07;;
17892;SDS011;9072;51.918;4.380;2023-09-18T02:52:07;21.90;;;19.63;;
17892;SDS011;9072;51.918;4.380;2023-09-18T02:54:34;21.97;;;19.60;;
17892;SDS011;9072;51.918;4.380;2023-09-18T02:57:01;24.13;;;21.53;;
17892;SDS011;9072;51.918;4.380;2023-09-18T02:59:29;23.23;;;20.90;;
17892;SDS011;9072;51.918;4.380;2023-09-18T03:01:56;24.50;;;21.97;;
17892;SDS011;9072;51.918;4.380;2023-09-18T03:04:23;23.80;;;21.50;;
17892;SDS011;9072;51.918;4.380;2023-09-18T03:06:52;22.77;;;20.50;;
17892;SDS011;9072;51.918;4.380;2023-09-18T03:09:19;26.70;;;20.30;;
17892;SDS011;9072;51.918;4.380;2023-09-18T03:11:46;25.20;;;21.50;;
17892;SDS011;9072;51.918;4.380;2023-09-18T03:14:13;55.77;;;24.27;;
17892;SDS011;9072;51.918;4.380;2023-09-18T03:16:42;25.00;;;21.50;;
17892;SDS011;9072;51.918;4.380;2023-09-18T03:19:09;33.73;;;24.03;;
17892;SDS011;9072;51.918;4.380;2023-09-18T03:21:36;26.20;;;23.43;;
17892;SDS011;9072;51.918;4.380;2023-09-18T03:24:07;30.80;;;24.90;;
17892;SDS011;9072;51.918;4.380;2023-09-18T03:26:34;35.27;;;25.60;;
17892;SDS011;9072;51.918;4.380;2023-09-18T03:29:01;30.97;;;25.13;;
17892;SDS011;9072;51.918;4.380;2023-09-18T03:31:29;26.47;;;23.43;;
17892;SDS011;9072;51.918;4.380;2023-09-18T03:33:56;22.80;;;20.47;;
17892;SDS011;9072;51.918;4.380;2023-09-18T03:36:23;22.67;;;18.97;;
17892;SDS011;9072;51.918;4.380;2023-09-18T03:39:02;20.23;;;18.13;;
17892;SDS011;9072;51.918;4.380;2023-09-18T03:41:32;22.83;;;20.37;;
17892;SDS011;9072;51.918;4.380;2023-09-18T03:43:59;20.83;;;18.20;;
17892;SDS011;9072;51.918;4.380;2023-09-18T03:46:26;20.57;;;18.37;;
17892;SDS011;9072;51.918;4.380;2023-09-18T03:48:54;24.07;;;19.37;;
17892;SDS011;9072;51.918;4.380;2023-09-18T03:51:22;23.30;;;19.17;;
17892;SDS011;9072;51.918;4.380;2023-09-18T03:53:49;22.93;;;19.60;;
17892;SDS011;9072;51.918;4.380;2023-09-18T03:56:17;20.23;;;17.87;;
17892;SDS011;9072;51.918;4.380;2023-09-18T03:58:46;23.27;;;20.73;;
17892;SDS011;9072;51.918;4.380;2023-09-18T04:01:14;29.37;;;23.53;;
17892;SDS011;9072;51.918;4.380;2023-09-18T04:03:42;30.10;;;24.50;;
17892;SDS011;9072;51.918;4.380;2023-09-18T04:06:12;38.20;;;27.40;;
17892;SDS011;9072;51.918;4.380;2023-09-18T04:08:39;31.93;;;27.17;;
17892;SDS011;9072;51.918;4.380;2023-09-18T04:11:07;34.80;;;28.23;;
17892;SDS011;9072;51.918;4.380;2023-09-18T04:13:36;35.53;;;29.40;;
17892;SDS011;9072;51.918;4.380;2023-09-18T04:16:05;30.23;;;27.03;;
17892;SDS011;9072;51.918;4.380;2023-09-18T04:18:33;35.27;;;29.23;;
17892;SDS011;9072;51.918;4.380;2023-09-18T04:21:00;37.80;;;30.73;;
17892;SDS011;9072;51.918;4.380;2023-09-18T04:23:27;37.10;;;29.20;;
17892;SDS011;9072;51.918;4.380;2023-09-18T04:25:55;38.83;;;30.27;;
17892;SDS011;9072;51.918;4.380;2023-09-18T04:28:23;37.33;;;29.47;;
17892;SDS011;9072;51.918;4.380;2023-09-18T04:30:50;38.20;;;28.63;;
17892;SDS011;9072;51.918;4.380;2023-09-18T04:33:19;38.13;;;27.93;;
17892;SDS011;9072;51.918;4.380;2023-09-18T04:35:47;31.33;;;25.27;;
17892;SDS011;9072;51.918;4.380;2023-09-18T04:38:14;28.63;;;25.57;;
17892;SDS011;9072;51.918;4.380;2023-09-18T04:40:42;28.83;;;24.47;;
17892;SDS011;9072;51.918;4.380;2023-09-18T04:43:10;33.07;;;25.83;;
17892;SDS011;9072;51.918;4.380;2023-09-18T04:45:38;32.77;;;26.90;;
17892;SDS011;9072;51.918;4.380;2023-09-18T04:48:05;33.27;;;26.33;;
17892;SDS011;9072;51.918;4.380;2023-09-18T04:50:34;30.50;;;26.33;;
17892;SDS011;9072;51.918;4.380;2023-09-18T04:53:02;29.07;;;24.40;;
17892;SDS011;9072;51.918;4.380;2023-09-18T04:55:29;36.83;;;28.37;;
17892;SDS011;9072;51.918;4.380;2023-09-18T04:57:57;29.40;;;25.23;;
17892;SDS011;9072;51.918;4.380;2023-09-18T05:00:25;32.20;;;27.30;;
17892;SDS011;9072;51.918;4.380;2023-09-18T05:02:54;33.43;;;27.03;;
17892;SDS011;9072;51.918;4.380;2023-09-18T05:05:22;37.13;;;27.87;;
17892;SDS011;9072;51.918;4.380;2023-09-18T05:07:51;33.00;;;26.97;;
17892;SDS011;9072;51.918;4.380;2023-09-18T05:10:19;34.97;;;26.40;;
17892;SDS011;9072;51.918;4.380;2023-09-18T05:12:48;29.07;;;24.30;;
17892;SDS011;9072;51.918;4.380;2023-09-18T05:15:23;24.77;;;20.63;;
17892;SDS011;9072;51.918;4.380;2023-09-18T05:17:55;28.87;;;20.30;;
17892;SDS011;9072;51.918;4.380;2023-09-18T05:20:23;21.97;;;18.23;;
17892;SDS011;9072;51.918;4.380;2023-09-18T05:22:53;17.67;;;15.00;;
17892;SDS011;9072;51.918;4.380;2023-09-18T05:25:26;16.90;;;14.87;;
17892;SDS011;9072;51.918;4.380;2023-09-18T05:27:58;19.77;;;14.13;;
17892;SDS011;9072;51.918;4.380;2023-09-18T05:30:30;15.43;;;13.70;;
17892;SDS011;9072;51.918;4.380;2023-09-18T05:32:59;16.27;;;13.97;;
17892;SDS011;9072;51.918;4.380;2023-09-18T05:35:30;16.77;;;14.63;;
17892;SDS011;9072;51.918;4.380;2023-09-18T05:37:59;17.00;;;14.97;;
17892;SDS011;9072;51.918;4.380;2023-09-18T05:40:33;17.77;;;14.63;;
17892;SDS011;9072;51.918;4.380;2023-09-18T05:43:01;17.13;;;13.47;;
17892;SDS011;9072;51.918;4.380;2023-09-18T05:45:29;14.27;;;12.77;;
17892;SDS011;9072;51.918;4.380;2023-09-18T05:47:57;18.90;;;13.00;;
17892;SDS011;9072;51.918;4.380;2023-09-18T05:50:29;14.53;;;11.30;;
17892;SDS011;9072;51.918;4.380;2023-09-18T05:53:01;13.43;;;11.60;;
17892;SDS011;9072;51.918;4.380;2023-09-18T05:55:32;13.43;;;10.50;;
17892;SDS011;9072;51.918;4.380;2023-09-18T05:58:00;11.20;;;9.83;;
17892;SDS011;9072;51.918;4.380;2023-09-18T06:00:32;11.53;;;9.83;;
17892;SDS011;9072;51.918;4.380;2023-09-18T06:02:59;11.33;;;8.97;;
17892;SDS011;9072;51.918;4.380;2023-09-18T06:05:31;9.53;;;8.63;;
17892;SDS011;9072;51.918;4.380;2023-09-18T06:08:01;10.10;;;9.10;;
17892;SDS011;9072;51.918;4.380;2023-09-18T06:10:29;12.77;;;9.13;;
17892;SDS011;9072;51.918;4.380;2023-09-18T06:12:59;11.63;;;9.60;;
17892;SDS011;9072;51.918;4.380;2023-09-18T06:15:29;14.27;;;10.13;;
17892;SDS011;9072;51.918;4.380;2023-09-18T06:17:57;13.03;;;9.63;;
17892;SDS011;9072;51.918;4.380;2023-09-18T06:20:25;13.07;;;9.90;;
17892;SDS011;9072;51.918;4.380;2023-09-18T06:22:54;14.40;;;10.43;;
17892;SDS011;9072;51.918;4.380;2023-09-18T06:25:23;13.03;;;10.53;;
17892;SDS011;9072;51.918;4.380;2023-09-18T06:27:52;12.97;;;10.10;;
17892;SDS011;9072;51.918;4.380;2023-09-18T06:30:22;13.37;;;10.43;;
17892;SDS011;9072;51.918;4.380;2023-09-18T06:32:50;15.30;;;10.53;;
17892;SDS011;9072;51.918;4.380;2023-09-18T06:35:21;14.20;;;9.70;;
17892;SDS011;9072;51.918;4.380;2023-09-18T06:37:48;11.80;;;9.40;;
17892;SDS011;9072;51.918;4.380;2023-09-18T06:40:22;12.23;;;9.53;;
17892;SDS011;9072;51.918;4.380;2023-09-18T06:42:51;13.07;;;9.70;;
17892;SDS011;9072;51.918;4.380;2023-09-18T06:45:25;14.77;;;9.70;;
17892;SDS011;9072;51.918;4.380;2023-09-18T06:47:54;10.10;;;8.90;;
17892;SDS011;9072;51.918;4.380;2023-09-18T06:50:22;10.90;;;8.93;;
17892;SDS011;9072;51.918;4.380;2023-09-18T06:52:55;11.53;;;8.80;;
17892;SDS011;9072;51.918;4.380;2023-09-18T06:55:24;11.10;;;9.30;;
17892;SDS011;9072;51.918;4.380;2023-09-18T06:57:53;11.07;;;9.80;;
17892;SDS011;9072;51.918;4.380;2023-09-18T07:00:21;11.33;;;9.17;;
17892;SDS011;9072;51.918;4.380;2023-09-18T07:02:48;11.23;;;8.40;;
17892;SDS011;9072;51.918;4.380;2023-09-18T07:05:16;12.13;;;9.33;;
17892;SDS011;9072;51.918;4.380;2023-09-18T07:07:43;13.40;;;10.67;;
17892;SDS011;9072;51.918;4.380;2023-09-18T07:10:11;14.00;;;11.77;;
17892;SDS011;9072;51.918;4.380;2023-09-18T07:12:42;12.80;;;11.50;;
17892;SDS011;9072;51.918;4.380;2023-09-18T07:15:11;12.57;;;11.33;;
17892;SDS011;9072;51.918;4.380;2023-09-18T07:17:38;13.30;;;11.13;;
17892;SDS011;9072;51.918;4.380;2023-09-18T07:20:06;11.20;;;9.90;;
17892;SDS011;9072;51.918;4.380;2023-09-18T07:22:39;12.07;;;9.40;;
17892;SDS011;9072;51.918;4.380;2023-09-18T07:25:13;10.60;;;9.60;;
17892;SDS011;9072;51.918;4.380;2023-09-18T07:27:42;10.03;;;9.03;;
17892;SDS011;9072;51.918;4.380;2023-09-18T07:30:11;10.73;;;8.70;;
17892;SDS011;9072;51.918;4.380;2023-09-18T07:32:41;9.57;;;8.23;;
17892;SDS011;9072;51.918;4.380;2023-09-18T07:35:09;8.93;;;8.03;;
17892;SDS011;9072;51.918;4.380;2023-09-18T07:37:39;11.40;;;8.43;;
17892;SDS011;9072;51.918;4.380;2023-09-18T07:40:11;8.60;;;7.80;;
17892;SDS011;9072;51.918;4.380;2023-09-18T07:42:42;7.73;;;7.03;;
17892;SDS011;9072;51.918;4.380;2023-09-18T07:45:10;9.30;;;7.17;;
17892;SDS011;9072;51.918;4.380;2023-09-18T07:47:37;7.93;;;7.00;;
17892;SDS011;9072;51.918;4.380;2023-09-18T07:50:05;7.50;;;6.40;;
17892;SDS011;9072;51.918;4.380;2023-09-18T07:52:36;7.37;;;5.93;;
17892;SDS011;9072;51.918;4.380;2023-09-18T07:55:04;7.03;;;6.43;;
17892;SDS011;9072;51.918;4.380;2023-09-18T07:57:32;12.00;;;7.17;;
17892;SDS011;9072;51.918;4.380;2023-09-18T08:00:01;8.67;;;7.47;;
17892;SDS011;9072;51.918;4.380;2023-09-18T08:02:32;8.20;;;7.07;;
17892;SDS011;9072;51.918;4.380;2023-09-18T08:05:00;9.97;;;7.17;;
17892;SDS011;9072;51.918;4.380;2023-09-18T08:07:28;11.83;;;7.97;;
17892;SDS011;9072;51.918;4.380;2023-09-18T08:09:56;9.47;;;8.43;;
17892;SDS011;9072;51.918;4.380;2023-09-18T08:12:23;10.50;;;8.77;;
17892;SDS011;9072;51.918;4.380;2023-09-18T08:14:51;9.00;;;8.17;;
17892;SDS011;9072;51.918;4.380;2023-09-18T08:17:20;8.77;;;7.40;;
17892;SDS011;9072;51.918;4.380;2023-09-18T08:19:50;9.97;;;7.70;;
17892;SDS011;9072;51.918;4.380;2023-09-18T08:22:18;9.43;;;7.97;;
17892;SDS011;9072;51.918;4.380;2023-09-18T08:24:46;9.63;;;7.47;;
17892;SDS011;9072;51.918;4.380;2023-09-18T08:27:18;7.67;;;7.07;;
17892;SDS011;9072;51.918;4.380;2023-09-18T08:29:45;10.23;;;7.27;;
17892;SDS011;9072;51.918;4.380;2023-09-18T08:32:13;7.00;;;6.37;;
17892;SDS011;9072;51.918;4.380;2023-09-18T08:34:42;8.17;;;6.00;;
17892;SDS011;9072;51.918;4.380;2023-09-18T08:37:09;6.60;;;5.83;;
17892;SDS011;9072;51.918;4.380;2023-09-18T08:39:39;7.23;;;5.30;;
17892;SDS011;9072;51.918;4.380;2023-09-18T08:42:07;6.70;;;5.23;;
17892;SDS011;9072;51.918;4.380;2023-09-18T08:44:38;6.17;;;4.83;;
17892;SDS011;9072;51.918;4.380;2023-09-18T08:47:07;6.80;;;5.10;;
17892;SDS011;9072;51.918;4.380;2023-09-18T08:49:38;7.67;;;5.40;;
17892;SDS011;9072;51.918;4.380;2023-09-18T08:52:07;6.60;;;4.80;;
17892;SDS011;9072;51.918;4.380;2023-09-18T08:54:35;5.50;;;5.00;;
17892;SDS011;9072;51.918;4.380;2023-09-18T08:57:03;9.10;;;4.80;;
17892;SDS011;9072;51.918;4.380;2023-09-18T08:59:33;8.37;;;5.30;;
17892;SDS011;9072;51.918;4.380;2023-09-18T09:02:02;7.33;;;5.70;;
17892;SDS011;9072;51.918;4.380;2023-09-18T09:04:30;7.40;;;5.43;;
17892;SDS011;9072;51.918;4.380;2023-09-18T09:06:58;8.57;;;5.43;;
17892;SDS011;9072;51.918;4.380;2023-09-18T09:09:27;7.07;;;4.67;;
17892;SDS011;9072;51.918;4.380;2023-09-18T09:11:54;8.33;;;4.80;;
17892;SDS011;9072;51.918;4.380;2023-09-18T09:14:22;7.93;;;4.83;;
17892;SDS011;9072;51.918;4.380;2023-09-18T09:16:54;7.43;;;4.50;;
17892;SDS011;9072;51.918;4.380;2023-09-18T09:19:29;7.13;;;5.30;;
17892;SDS011;9072;51.918;4.380;2023-09-18T09:21:57;6.03;;;4.87;;
17892;SDS011;9072;51.918;4.380;2023-09-18T09:27:13;6.40;;;5.40;;
17892;SDS011;9072;51.918;4.380;2023-09-18T09:29:43;7.33;;;6.23;;
17892;SDS011;9072;51.918;4.380;2023-09-18T09:32:29;7.40;;;6.70;;
17892;SDS011;9072;51.918;4.380;2023-09-18T09:34:59;7.70;;;6.97;;
17892;SDS011;9072;51.918;4.380;2023-09-18T09:37:29;8.20;;;7.00;;
17892;SDS011;9072;51.918;4.380;2023-09-18T09:40:02;13.70;;;7.70;;
17892;SDS011;9072;51.918;4.380;2023-09-18T09:42:38;8.30;;;7.50;;
17892;SDS011;9072;51.918;4.380;2023-09-18T09:45:11;7.60;;;7.00;;
17892;SDS011;9072;51.918;4.380;2023-09-18T09:47:40;7.23;;;6.53;;
17892;SDS011;9072;51.918;4.380;2023-09-18T09:50:09;9.53;;;6.80;;
17892;SDS011;9072;51.918;4.380;2023-09-18T09:52:42;8.97;;;7.00;;
17892;SDS011;9072;51.918;4.380;2023-09-18T09:55:19;7.40;;;6.60;;
17892;SDS011;9072;51.918;4.380;2023-09-18T09:57:49;9.73;;;5.90;;
17892;SDS011;9072;51.918;4.380;2023-09-18T10:00:18;7.22;;;6.25;;
17892;SDS011;9072;51.918;4.380;2023-09-18T10:02:53;7.00;;;5.95;;
17892;SDS011;9072;51.918;4.380;2023-09-18T10:05:29;6.90;;;6.25;;
17892;SDS011;9072;51.918;4.380;2023-09-18T10:08:01;9.10;;;6.35;;
17892;SDS011;9072;51.918;4.380;2023-09-18T10:10:33;8.60;;;6.25;;
17892;SDS011;9072;51.918;4.380;2023-09-18T10:13:09;7.97;;;6.47;;
17892;SDS011;9072;51.918;4.380;2023-09-18T10:15:39;8.73;;;6.95;;
17892;SDS011;9072;51.918;4.380;2023-09-18T10:18:17;7.70;;;6.22;;
17892;SDS011;9072;51.918;4.380;2023-09-18T10:20:50;7.57;;;6.00;;
17892;SDS011;9072;51.918;4.380;2023-09-18T10:23:41;8.30;;;5.88;;
17892;SDS011;9072;51.918;4.380;2023-09-18T10:26:21;6.15;;;5.55;;
17892;SDS011;9072;51.918;4.380;2023-09-18T10:28:51;6.45;;;5.25;;
17892;SDS011;9072;51.918;4.380;2023-09-18T10:31:23;7.82;;;5.28;;
17892;SDS011;9072;51.918;4.380;2023-09-18T10:33:52;7.13;;;5.22;;
17892;SDS011;9072;51.918;4.380;2023-09-18T10:36:22;6.68;;;5.10;;
17892;SDS011;9072;51.918;4.380;2023-09-18T10:38:51;5.72;;;4.95;;
17892;SDS011;9072;51.918;4.380;2023-09-18T10:41:22;7.90;;;4.97;;
17892;SDS011;9072;51.918;4.380;2023-09-18T10:43:53;6.32;;;4.80;;
17892;SDS011;9072;51.918;4.380;2023-09-18T10:46:22;8.77;;;4.88;;
17892;SDS011;9072;51.918;4.380;2023-09-18T10:48:50;7.15;;;4.93;;
17892;SDS011;9072;51.918;4.380;2023-09-18T10:51:19;7.85;;;4.63;;
17892;SDS011;9072;51.918;4.380;2023-09-18T10:53:47;5.35;;;4.07;;
17892;SDS011;9072;51.918;4.380;2023-09-18T10:56:15;6.80;;;4.07;;
17892;SDS011;9072;51.918;4.380;2023-09-18T10:58:44;6.50;;;3.80;;
17892;SDS011;9072;51.918;4.380;2023-09-18T11:01:14;5.18;;;3.70;;
17892;SDS011;9072;51.918;4.380;2023-09-18T11:03:43;5.20;;;4.38;;
17892;SDS011;9072;51.918;4.380;2023-09-18T11:06:11;5.70;;;4.00;;
17892;SDS011;9072;51.918;4.380;2023-09-18T11:08:43;5.07;;;4.30;;
17892;SDS011;9072;51.918;4.380;2023-09-18T11:11:11;7.13;;;4.15;;
17892;SDS011;9072;51.918;4.380;2023-09-18T11:13:40;6.20;;;4.15;;
17892;SDS011;9072;51.918;4.380;2023-09-18T11:16:16;6.78;;;3.97;;
17892;SDS011;9072;51.918;4.380;2023-09-18T11:18:46;5.55;;;4.10;;
17892;SDS011;9072;51.918;4.380;2023-09-18T11:21:17;3.88;;;3.47;;
17892;SDS011;9072;51.918;4.380;2023-09-18T11:23:57;5.82;;;3.58;;
17892;SDS011;9072;51.918;4.380;2023-09-18T11:26:28;7.30;;;4.13;;
17892;SDS011;9072;51.918;4.380;2023-09-18T11:29:03;5.55;;;4.35;;
17892;SDS011;9072;51.918;4.380;2023-09-18T11:31:42;5.15;;;4.13;;
17892;SDS011;9072;51.918;4.380;2023-09-18T11:34:11;6.30;;;4.25;;
17892;SDS011;9072;51.918;4.380;2023-09-18T11:36:39;6.57;;;4.85;;
17892;SDS011;9072;51.918;4.380;2023-09-18T11:39:07;8.30;;;4.15;;
17892;SDS011;9072;51.918;4.380;2023-09-18T11:41:36;9.15;;;4.25;;
17892;SDS011;9072;51.918;4.380;2023-09-18T11:47:03;8.82;;;5.20;;
17892;SDS011;9072;51.918;4.380;2023-09-18T11:49:37;6.45;;;4.10;;
17892;SDS011;9072;51.918;4.380;2023-09-18T11:52:08;8.43;;;4.40;;
17892;SDS011;9072;51.918;4.380;2023-09-18T11:54:39;5.63;;;4.40;;
17892;SDS011;9072;51.918;4.380;2023-09-18T11:57:07;5.78;;;4.45;;
17892;SDS011;9072;51.918;4.380;2023-09-18T11:59:37;6.25;;;4.70;;
17892;SDS011;9072;51.918;4.380;2023-09-18T12:02:08;4.68;;;4.18;;
17892;SDS011;9072;51.918;4.380;2023-09-18T12:04:36;6.18;;;4.57;;
17892;SDS011;9072;51.918;4.380;2023-09-18T12:07:04;5.97;;;4.22;;
17892;SDS011;9072;51.918;4.380;2023-09-18T12:09:33;6.88;;;4.47;;
17892;SDS011;9072;51.918;4.380;2023-09-18T12:12:01;5.85;;;4.35;;
17892;SDS011;9072;51.918;4.380;2023-09-18T12:14:34;6.28;;;4.13;;
17892;SDS011;9072;51.918;4.380;2023-09-18T12:17:02;6.53;;;4.30;;
17892;SDS011;9072;51.918;4.380;2023-09-18T12:19:34;5.97;;;3.95;;
17892;SDS011;9072;51.918;4.380;2023-09-18T12:22:02;8.43;;;4.00;;
17892;SDS011;9072;51.918;4.380;2023-09-18T12:24:30;7.50;;;4.22;;
17892;SDS011;9072;51.918;4.380;2023-09-18T12:26:59;5.40;;;3.70;;
17892;SDS011;9072;51.918;4.380;2023-09-18T12:29:27;4.85;;;3.70;;
17892;SDS011;9072;51.918;4.380;2023-09-18T12:31:54;5.20;;;3.60;;
17892;SDS011;9072;51.918;4.380;2023-09-18T12:34:22;6.13;;;3.50;;
17892;SDS011;9072;51.918;4.380;2023-09-18T12:36:51;7.50;;;3.67;;
17892;SDS011;9072;51.918;4.380;2023-09-18T12:39:20;6.85;;;3.70;;
17892;SDS011;9072;51.918;4.380;2023-09-18T12:41:58;7.45;;;3.30;;
17892;SDS011;9072;51.918;4.380;2023-09-18T12:44:28;5.57;;;3.40;;
17892;SDS011;9072;51.918;4.380;2023-09-18T12:46:56;5.82;;;3.33;;
17892;SDS011;9072;51.918;4.380;2023-09-18T12:49:24;4.97;;;3.85;;
17892;SDS011;9072;51.918;4.380;2023-09-18T12:52:02;5.60;;;3.60;;
17892;SDS011;9072;51.918;4.380;2023-09-18T12:54:38;4.28;;;3.30;;
17892;SDS011;9072;51.918;4.380;2023-09-18T12:57:07;6.57;;;3.22;;
17892;SDS011;9072;51.918;4.380;2023-09-18T12:59:36;3.75;;;3.30;;
17892;SDS011;9072;51.918;4.380;2023-09-18T13:02:04;6.47;;;2.95;;
17892;SDS011;9072;51.918;4.380;2023-09-18T13:04:32;5.80;;;3.35;;
17892;SDS011;9072;51.918;4.380;2023-09-18T13:07:13;3.63;;;3.03;;
17892;SDS011;9072;51.918;4.380;2023-09-18T13:09:42;6.10;;;3.30;;
17892;SDS011;9072;51.918;4.380;2023-09-18T13:12:13;5.93;;;3.53;;
17892;SDS011;9072;51.918;4.380;2023-09-18T13:14:59;4.35;;;3.17;;
17892;SDS011;9072;51.918;4.380;2023-09-18T13:17:36;6.18;;;3.10;;
17892;SDS011;9072;51.918;4.380;2023-09-18T13:22:55;5.28;;;2.72;;
17892;SDS011;9072;51.918;4.380;2023-09-18T13:25:29;6.50;;;3.00;;
17892;SDS011;9072;51.918;4.380;2023-09-18T13:27:59;3.72;;;2.90;;
17892;SDS011;9072;51.918;4.380;2023-09-18T13:30:28;4.57;;;2.65;;
17892;SDS011;9072;51.918;4.380;2023-09-18T13:33:02;5.72;;;2.85;;
17892;SDS011;9072;51.918;4.380;2023-09-18T13:35:31;5.38;;;2.88;;
17892;SDS011;9072;51.918;4.380;2023-09-18T13:38:01;3.13;;;2.75;;
17892;SDS011;9072;51.918;4.380;2023-09-18T13:40:31;5.45;;;2.55;;
17892;SDS011;9072;51.918;4.380;2023-09-18T13:42:59;5.70;;;3.30;;
17892;SDS011;9072;51.918;4.380;2023-09-18T13:45:29;4.45;;;2.63;;
17892;SDS011;9072;51.918;4.380;2023-09-18T13:47:56;3.33;;;2.80;;
17892;SDS011;9072;51.918;4.380;2023-09-18T13:50:24;5.57;;;2.85;;
17892;SDS011;9072;51.918;4.380;2023-09-18T13:52:52;3.40;;;2.85;;
17892;SDS011;9072;51.918;4.380;2023-09-18T13:55:21;2.92;;;2.65;;
17892;SDS011;9072;51.918;4.380;2023-09-18T13:57:48;4.33;;;2.90;;
17892;SDS011;9072;51.918;4.380;2023-09-18T14:00:16;4.93;;;3.60;;
17892;SDS011;9072;51.918;4.380;2023-09-18T14:02:45;27.13;;;5.70;;
17892;SDS011;9072;51.918;4.380;2023-09-18T14:05:13;6.07;;;2.43;;
17892;SDS011;9072;51.918;4.380;2023-09-18T14:07:44;9.03;;;3.37;;
17892;SDS011;9072;51.918;4.380;2023-09-18T14:10:12;7.60;;;3.17;;
17892;SDS011;9072;51.918;4.380;2023-09-18T14:12:43;8.63;;;2.87;;
17892;SDS011;9072;51.918;4.380;2023-09-18T14:15:10;8.27;;;2.70;;
17892;SDS011;9072;51.918;4.380;2023-09-18T14:17:44;9.10;;;3.23;;
17892;SDS011;9072;51.918;4.380;2023-09-18T14:20:11;10.80;;;3.00;;
17892;SDS011;9072;51.918;4.380;2023-09-18T14:22:40;13.87;;;3.40;;
17892;SDS011;9072;51.918;4.380;2023-09-18T14:25:10;17.33;;;3.53;;
17892;SDS011;9072;51.918;4.380;2023-09-18T14:27:39;15.80;;;3.97;;
17892;SDS011;9072;51.918;4.380;2023-09-18T14:30:11;18.13;;;4.27;;
17892;SDS011;9072;51.918;4.380;2023-09-18T14:32:41;16.53;;;3.87;;
17892;SDS011;9072;51.918;4.380;2023-09-18T14:35:09;15.27;;;3.47;;
17892;SDS011;9072;51.918;4.380;2023-09-18T14:37:36;19.60;;;4.13;;
17892;SDS011;9072;51.918;4.380;2023-09-18T14:40:07;17.83;;;4.10;;
17892;SDS011;9072;51.918;4.380;2023-09-18T14:42:37;18.90;;;3.93;;
17892;SDS011;9072;51.918;4.380;2023-09-18T14:45:04;15.70;;;4.33;;
17892;SDS011;9072;51.918;4.380;2023-09-18T14:47:34;15.17;;;4.70;;
17892;SDS011;9072;51.918;4.380;2023-09-18T14:50:02;15.63;;;4.93;;
17892;SDS011;9072;51.918;4.380;2023-09-18T14:52:29;14.67;;;4.90;;
17892;SDS011;9072;51.918;4.380;2023-09-18T14:54:57;13.50;;;5.03;;
17892;SDS011;9072;51.918;4.380;2023-09-18T14:57:25;11.70;;;4.63;;
17892;SDS011;9072;51.918;4.380;2023-09-18T14:59:53;11.10;;;4.33;;
17892;SDS011;9072;51.918;4.380;2023-09-18T15:02:21;5.70;;;3.97;;
17892;SDS011;9072;51.918;4.380;2023-09-18T15:04:55;6.97;;;4.03;;
17892;SDS011;9072;51.918;4.380;2023-09-18T15:07:23;6.53;;;3.70;;
17892;SDS011;9072;51.918;4.380;2023-09-18T15:09:54;6.30;;;4.20;;